Time;durP1;ratioP1;P1;durP2;ratioP2;P2;SDS_P1;SDS_P2;PMS_P1;PMS_P2;Temp;Humidity;BMP_temperature;BMP_pressure;BME280_temperature;BME280_humidity;BME280_pressure;Samples;Min_cycle;Max_cycle;Signal;HPM_P1;HPM_P2
2021/10/21 00:00:55;;;;;;;;;13.00;11.20;;;;;19.37;38.65;97881.03;7698371;22;97429;-62
2021/10/21 00:03:59;;;;;;;;;11.00;10.00;;;;;19.36;39.19;97880.22;7698193;22;96469;-60
2021/10/21 00:07:03;;;;;;;;;12.00;11.00;;;;;19.37;39.27;97861.91;7697916;22;97317;-62
2021/10/21 00:10:09;;;;;;;;;10.40;9.80;;;;;19.35;38.69;97858.69;7697765;22;97489;-62
2021/10/21 00:13:13;;;;;;;;;9.00;9.00;;;;;19.30;38.51;97859.56;7697577;22;96517;-62
2021/10/21 00:16:16;;;;;;;;;10.60;10.00;;;;;19.29;39.29;97855.25;7697170;22;97522;-61
2021/10/21 00:19:20;;;;;;;;;14.00;11.80;;;;;19.38;38.61;97858.06;7669761;22;97034;-62
2021/10/21 00:22:23;;;;;;;;;9.00;9.00;;;;;19.38;38.59;97855.34;7668962;22;96778;-62
2021/10/21 00:25:28;;;;;;;;;13.00;12.00;;;;;19.47;38.53;97856.28;7697573;22;97126;-61
2021/10/21 00:28:31;;;;;;;;;12.00;12.00;;;;;19.48;38.32;97854.34;7697732;22;98558;-62
2021/10/21 00:31:34;;;;;;;;;9.20;8.20;;;;;19.49;38.53;97851.31;7670592;22;97486;-63
2021/10/21 00:34:37;;;;;;;;;10.60;10.00;;;;;19.43;38.65;97844.31;7698358;22;97086;-63
2021/10/21 00:37:41;;;;;;;;;11.00;11.00;;;;;19.44;38.30;97845.97;7697339;22;97448;-62
2021/10/21 00:40:46;;;;;;;;;12.00;10.60;;;;;19.48;38.24;97846.97;7697389;22;96817;-62
2021/10/21 00:43:49;;;;;;;;;9.60;9.00;;;;;19.43;38.62;97836.09;7670623;22;96763;-62
2021/10/21 00:46:54;;;;;;;;;11.00;10.00;;;;;19.29;38.95;97840.75;7671120;22;96543;-62
2021/10/21 00:49:58;;;;;;;;;12.00;12.00;;;;;19.11;39.70;97845.19;7698067;22;97306;-60
2021/10/21 00:53:01;;;;;;;;;10.40;10.40;;;;;19.01;39.51;97835.25;7696696;22;97038;-61
2021/10/21 00:56:09;;;;;;;;;9.25;9.25;;;;;18.94;39.87;97825.84;7697369;22;97297;-62
2021/10/21 00:59:14;;;;;;;;;10.40;9.80;;;;;18.83;40.50;97821.69;7698753;22;96318;-62
2021/10/21 01:02:17;;;;;;;;;10.67;10.00;;;;;18.48;41.19;97790.31;7670670;22;97057;-63
2021/10/21 01:05:23;;;;;;;;;11.25;10.25;;;;;18.52;41.38;97813.22;7697489;22;97124;-62
2021/10/21 01:08:26;;;;;;;;;11.00;10.00;;;;;18.45;41.50;97810.03;7669869;22;96920;-62
2021/10/21 01:11:32;;;;;;;;;10.60;10.00;;;;;18.46;41.43;97812.47;7696510;22;96435;-63
2021/10/21 01:14:35;;;;;;;;;11.00;10.00;;;;;18.45;41.52;97816.31;7697570;22;97548;-61
2021/10/21 01:17:38;;;;;;;;;12.00;10.40;;;;;18.47;41.29;97810.56;7669983;22;98500;-62
2021/10/21 01:20:43;;;;;;;;;10.50;9.50;;;;;18.46;41.17;97800.75;7697269;22;96550;-61
2021/10/21 01:23:49;;;;;;;;;12.00;11.00;;;;;18.44;41.21;97794.75;7670062;22;96399;-60
2021/10/21 01:26:55;;;;;;;;;10.00;10.00;;;;;18.41;41.43;97781.72;7697382;22;96951;-63
2021/10/21 01:29:58;;;;;;;;;9.80;9.40;;;;;18.32;41.66;97780.78;7669175;22;97824;-60
2021/10/21 01:33:02;;;;;;;;;9.00;8.50;;;;;18.14;42.63;97777.78;7697816;22;97353;-62
2021/10/21 01:36:13;;;;;;;;;12.00;11.00;;;;;18.04;42.97;97766.22;7696849;22;96408;-62
2021/10/21 01:39:17;;;;;;;;;12.00;11.00;;;;;17.94;43.23;97767.19;7697626;22;98016;-62
2021/10/21 01:42:20;;;;;;;;;9.60;9.00;;;;;17.86;43.27;97756.16;7697165;22;96569;-60
2021/10/21 01:45:27;;;;;;;;;12.00;11.00;;;;;17.33;43.43;97689.06;7697230;22;96743;-62
2021/10/21 01:48:31;;;;;;;;;10.00;10.00;;;;;17.70;43.56;97753.66;7670164;22;96453;-62
2021/10/21 01:51:36;;;;;;;;;12.00;10.00;;;;;17.65;43.43;97756.47;7696586;22;96748;-61
2021/10/21 01:54:39;;;;;;;;;9.00;9.00;;;;;17.66;43.37;97747.19;7697326;22;97058;-63
2021/10/21 01:57:43;;;;;;;;;11.60;11.40;;;;;17.69;43.11;97746.59;7668801;22;100045;-61
2021/10/21 02:00:47;;;;;;;;;9.00;8.20;;;;;17.70;43.18;97741.94;7696748;22;96343;-62
2021/10/21 02:03:50;;;;;;;;;11.60;9.60;;;;;17.77;42.59;97744.31;7696800;22;96507;-63
2021/10/21 02:06:55;;;;;;;;;12.50;11.00;;;;;17.83;42.55;97727.59;7697999;22;96334;-60
2021/10/21 02:09:58;;;;;;;;;12.00;10.00;;;;;17.87;42.39;97723.16;7670518;22;96813;-60
2021/10/21 02:13:01;;;;;;;;;11.00;10.00;;;;;17.86;42.54;97718.81;7670475;22;97161;-61
2021/10/21 02:16:05;;;;;;;;;10.00;9.00;;;;;17.79;42.42;97717.56;7671386;22;96436;-62
2021/10/21 02:19:08;;;;;;;;;10.75;10.00;;;;;17.79;42.55;97721.09;7698029;22;97447;-62
2021/10/21 02:22:13;;;;;;;;;12.00;11.00;;;;;17.74;42.87;97721.16;7698130;22;96540;-61
2021/10/21 02:25:16;;;;;;;;;11.00;10.00;;;;;17.66;43.24;97716.38;7698287;22;96914;-61
2021/10/21 02:28:20;;;;;;;;;9.60;9.20;;;;;17.52;43.33;97718.19;7698272;22;97150;-62
2021/10/21 02:31:23;;;;;;;;;12.40;11.00;;;;;17.45;43.31;97721.28;7697913;22;97470;-62
2021/10/21 02:34:27;;;;;;;;;11.60;11.60;;;;;17.26;43.54;97706.84;7698166;22;97297;-62
2021/10/21 02:37:32;;;;;;;;;11.20;9.80;;;;;17.34;43.64;97722.56;7697587;22;96415;-63
2021/10/21 02:40:35;;;;;;;;;12.25;11.00;;;;;17.27;43.92;97719.38;7696747;22;98270;-60
2021/10/21 02:43:39;;;;;;;;;10.20;10.20;;;;;17.12;44.83;97704.03;7699375;22;96528;-62
2021/10/21 02:46:42;;;;;;;;;11.20;10.80;;;;;17.10;45.02;97705.44;7672660;22;97027;-61
2021/10/21 02:49:45;;;;;;;;;11.60;11.00;;;;;16.95;45.76;97709.19;7699236;22;96925;-61
2021/10/21 02:52:50;;;;;;;;;11.00;10.00;;;;;16.82;46.01;97701.69;7699043;22;96388;-62
2021/10/21 02:55:55;;;;;;;;;13.00;12.00;;;;;16.73;46.04;97693.38;7699532;22;96677;-61
2021/10/21 02:58:58;;;;;;;;;10.80;10.00;;;;;16.60;46.31;97691.34;7699288;22;97434;-60
2021/10/21 03:02:01;;;;;;;;;10.00;10.00;;;;;16.48;46.56;97680.84;7698969;22;97545;-61
2021/10/21 03:05:06;;;;;;;;;10.60;10.00;;;;;16.42;46.35;97668.38;7699304;22;96429;-62
2021/10/21 03:08:11;;;;;;;;;14.00;11.00;;;;;16.36;46.68;97666.03;7699040;22;96540;-61
2021/10/21 03:11:14;;;;;;;;;13.20;12.00;;;;;16.28;46.84;97653.84;7699248;22;96386;-61
2021/10/21 03:14:17;;;;;;;;;11.00;10.20;;;;;16.30;46.65;97656.28;7699623;22;96879;-61
2021/10/21 03:17:21;;;;;;;;;11.00;10.00;;;;;16.35;46.07;97657.03;7698499;22;96880;-60
2021/10/21 03:20:24;;;;;;;;;10.40;10.00;;;;;16.50;45.17;97647.09;7699493;22;96416;-60
2021/10/21 03:23:29;;;;;;;;;11.20;11.00;;;;;16.68;44.53;97647.16;7697277;22;97337;-60
2021/10/21 03:26:32;;;;;;;;;10.00;9.60;;;;;16.85;43.59;97646.69;7699495;22;97805;-60
2021/10/21 03:29:36;;;;;;;;;12.50;10.00;;;;;17.02;43.16;97649.72;7698932;22;97410;-60
2021/10/21 03:32:39;;;;;;;;;10.00;9.25;;;;;17.15;43.14;97653.66;7699271;22;97119;-63
2021/10/21 03:35:43;;;;;;;;;10.00;10.00;;;;;17.20;43.23;97640.75;7698917;22;97360;-62
2021/10/21 03:38:48;;;;;;;;;10.00;10.00;;;;;17.19;43.36;97641.06;7699332;22;96429;-60
2021/10/21 03:41:51;;;;;;;;;11.40;11.00;;;;;17.13;43.63;97653.13;7699605;22;97085;-61
2021/10/21 03:44:56;;;;;;;;;12.00;11.50;;;;;17.00;43.97;97646.50;7699659;22;97424;-61
2021/10/21 03:48:00;;;;;;;;;11.00;10.00;;;;;16.90;44.25;97646.63;7698444;22;97472;-62
2021/10/21 03:51:03;;;;;;;;;10.80;10.00;;;;;16.78;44.42;97633.44;7697686;22;97504;-62
2021/10/21 03:54:12;;;;;;;;;10.40;10.00;;;;;16.70;44.47;97633.28;7698680;22;96457;-62
2021/10/21 03:57:16;;;;;;;;;11.00;10.25;;;;;16.60;44.92;97626.06;7698302;22;96674;-63
2021/10/21 04:00:19;;;;;;;;;10.60;10.00;;;;;16.56;45.14;97630.44;7697418;22;97399;-63
2021/10/21 04:03:23;;;;;;;;;12.50;11.00;;;;;16.45;45.30;97624.28;7699405;22;96481;-62
2021/10/21 04:06:26;;;;;;;;;12.00;11.00;;;;;16.38;45.67;97620.28;7699471;22;96771;-60
2021/10/21 04:09:31;;;;;;;;;11.00;11.00;;;;;16.35;45.71;97620.88;7699277;22;96464;-62
2021/10/21 04:12:35;;;;;;;;;12.00;12.00;;;;;16.34;45.69;97617.34;7671424;22;96840;-63
2021/10/21 04:15:38;;;;;;;;;11.40;11.00;;;;;16.39;45.55;97609.13;7671733;22;96829;-62
2021/10/21 04:18:41;;;;;;;;;11.00;11.00;;;;;16.46;45.41;97596.00;7670849;22;97464;-62
2021/10/21 04:21:45;;;;;;;;;11.00;11.00;;;;;16.56;45.17;97596.97;7696546;22;96884;-60
2021/10/21 04:24:49;;;;;;;;;13.00;12.00;;;;;16.67;44.98;97587.59;7698800;22;97473;-63
2021/10/21 04:27:53;;;;;;;;;12.00;12.00;;;;;16.76;44.80;97573.03;7698556;22;96665;-60
2021/10/21 04:30:56;;;;;;;;;12.00;11.00;;;;;16.85;44.73;97574.00;7670084;22;97784;-62
2021/10/21 04:33:59;;;;;;;;;10.00;10.00;;;;;16.86;44.71;97572.06;7698692;22;97922;-61
2021/10/21 04:37:03;;;;;;;;;11.00;11.00;;;;;16.88;44.72;97573.41;7699405;22;97089;-62
2021/10/21 04:40:09;;;;;;;;;11.00;10.00;;;;;16.90;45.45;97556.81;7671864;22;96698;-62
2021/10/21 04:43:12;;;;;;;;;15.00;13.00;;;;;16.84;45.44;97556.06;7699976;22;97099;-61
2021/10/21 04:46:15;;;;;;;;;13.00;12.00;;;;;16.81;45.26;97544.97;7699264;22;96994;-62
2021/10/21 04:49:19;;;;;;;;;12.00;11.40;;;;;16.82;45.12;97544.66;7671957;22;96334;-60
2021/10/21 04:52:22;;;;;;;;;13.60;12.00;;;;;16.84;45.21;97533.47;7670639;22;98326;-61
2021/10/21 04:55:27;;;;;;;;;10.00;9.80;;;;;16.86;45.06;97531.25;7698127;22;96522;-62
2021/10/21 04:58:30;;;;;;;;;12.00;12.00;;;;;16.88;44.99;97523.59;7695991;22;96483;-61
2021/10/21 05:01:34;;;;;;;;;13.00;12.00;;;;;16.96;44.92;97516.69;7697154;22;96978;-62
2021/10/21 05:04:38;;;;;;;;;13.00;12.60;;;;;16.97;44.78;97515.56;7698121;22;96356;-60
2021/10/21 05:07:41;;;;;;;;;14.40;12.00;;;;;16.96;44.85;97506.59;7697242;22;97106;-62
2021/10/21 05:10:45;;;;;;;;;14.25;13.25;;;;;16.88;45.04;97507.28;7697483;22;96452;-61
2021/10/21 05:13:49;;;;;;;;;17.00;13.40;;;;;16.85;45.48;97497.00;7697226;22;97384;-62
2021/10/21 05:16:52;;;;;;;;;16.60;14.00;;;;;16.79;45.51;97490.00;7697205;22;97317;-61
2021/10/21 05:19:56;;;;;;;;;14.00;13.00;;;;;16.77;45.76;97489.47;7696480;22;96855;-61
2021/10/21 05:22:59;;;;;;;;;15.20;14.00;;;;;16.75;45.97;97489.78;7668798;22;98279;-61
2021/10/21 05:26:04;;;;;;;;;16.00;16.00;;;;;16.75;45.85;97478.09;7667450;22;98394;-61
2021/10/21 05:29:07;;;;;;;;;16.20;15.00;;;;;16.75;45.91;97470.75;7694362;22;96862;-61
2021/10/21 05:32:10;;;;;;;;;16.25;15.00;;;;;16.71;46.34;97474.34;7668010;22;98335;-61
2021/10/21 05:35:14;;;;;;;;;16.60;15.60;;;;;16.72;46.21;97471.31;7696276;22;97993;-62
2021/10/21 05:38:17;;;;;;;;;18.00;17.00;;;;;16.79;45.95;97471.75;7696611;22;97405;-61
2021/10/21 05:41:22;;;;;;;;;16.00;14.00;;;;;16.89;45.80;97468.06;7669399;22;100835;-60
2021/10/21 05:44:26;;;;;;;;;17.33;17.00;;;;;16.97;45.70;97461.13;7669880;22;97766;-61
2021/10/21 05:47:29;;;;;;;;;16.80;15.80;;;;;17.00;45.83;97450.47;7668671;22;97674;-62
2021/10/21 05:50:33;;;;;;;;;17.50;17.00;;;;;17.04;46.09;97445.22;7696463;22;96507;-62
2021/10/21 05:53:36;;;;;;;;;19.00;17.00;;;;;17.24;45.88;97439.44;7696603;22;97446;-61
2021/10/21 05:56:40;;;;;;;;;16.60;15.60;;;;;17.50;45.30;97437.03;7695947;22;97396;-62
2021/10/21 05:59:44;;;;;;;;;15.00;14.60;;;;;17.65;44.82;97418.50;7668486;22;97715;-63
2021/10/21 06:02:47;;;;;;;;;17.60;15.60;;;;;18.21;44.11;97435.63;7667786;22;96878;-63
2021/10/21 06:05:50;;;;;;;;;18.20;15.60;;;;;18.58;42.41;97435.34;7694963;22;97011;-61
2021/10/21 06:08:54;;;;;;;;;18.00;14.75;;;;;19.14;40.24;97434.00;7696451;22;97426;-62
2021/10/21 06:11:59;;;;;;;;;15.40;15.00;;;;;19.60;39.73;97425.41;7696002;22;97403;-64
2021/10/21 06:15:04;;;;;;;;;18.00;16.40;;;;;20.25;39.75;97414.50;7696491;22;97299;-62
2021/10/21 06:18:11;;;;;;;;;19.00;18.00;;;;;;;;7697767;22;96704;-65
2021/10/21 06:21:21;;;;;;;;;17.00;16.60;;;;;22.13;36.45;97409.84;7698039;22;97020;-62
2021/10/21 06:24:24;;;;;;;;;16.75;16.00;;;;;23.06;34.67;97417.69;7669808;22;98553;-61
2021/10/21 06:27:29;;;;;;;;;16.00;16.00;;;;;23.85;32.94;97410.19;7670496;22;96388;-65
2021/10/21 06:30:32;;;;;;;;;17.00;15.60;;;;;24.13;31.97;97409.16;7697173;22;97383;-64
2021/10/21 06:33:35;;;;;;;;;17.00;15.00;;;;;24.64;30.79;97398.50;7696439;22;97242;-64
2021/10/21 06:36:39;;;;;;;;;16.00;15.00;;;;;24.75;30.48;97388.59;7696048;22;96908;-62
2021/10/21 06:39:42;;;;;;;;;17.00;16.00;;;;;24.67;30.29;97383.25;7643620;22;97681;-62
2021/10/21 06:42:47;;;;;;;;;15.00;14.60;;;;;24.64;30.58;97373.69;7696337;22;97055;-65
2021/10/21 06:45:50;;;;;;;;;16.20;15.00;;;;;25.17;29.62;97383.47;7669141;22;98759;-63
2021/10/21 06:48:54;;;;;;;;;18.50;15.00;;;;;26.17;28.34;97382.09;7695915;22;96586;-65
2021/10/21 06:51:58;;;;;;;;;14.00;14.00;;;;;26.09;27.98;97388.63;7695561;22;96640;-61
2021/10/21 06:55:01;;;;;;;;;16.60;16.00;;;;;26.17;28.03;97382.09;7668451;22;97057;-62
2021/10/21 06:58:06;;;;;;;;;13.80;13.80;;;;;26.65;27.76;97374.47;7667374;22;96607;-62
2021/10/21 07:01:09;;;;;;;;;15.60;15.00;;;;;27.89;26.08;97376.84;7692936;22;96450;-64
2021/10/21 07:04:12;;;;;;;;;16.80;15.80;;;;;29.32;24.31;97372.06;7667549;22;96670;-65
2021/10/21 07:07:16;;;;;;;;;15.00;15.00;;;;;30.93;22.49;97368.91;7695092;22;97555;-62
2021/10/21 07:10:21;;;;;;;;;13.60;12.60;;;;;32.14;21.04;97377.50;7667247;22;96608;-65
2021/10/21 07:13:26;;;;;;;;;16.00;15.00;;;;;32.88;20.30;97352.22;7694971;22;96595;-66
2021/10/21 07:16:40;;;;;;;;;15.00;14.40;;;;;33.79;19.08;97336.09;7693090;22;97354;-66
2021/10/21 07:19:46;;;;;;;;;15.00;14.00;;;;;34.03;18.83;97325.09;7695713;22;97105;-63
2021/10/21 07:22:49;;;;;;;;;16.00;14.75;;;;;33.81;18.57;97310.53;7696366;22;97350;-66
2021/10/21 07:25:52;;;;;;;;;13.40;12.80;;;;;34.27;18.60;97302.50;7669730;22;97765;-65
2021/10/21 07:28:57;;;;;;;;;17.00;14.60;;;;;34.58;18.64;97292.16;7698006;22;96469;-63
2021/10/21 07:32:00;;;;;;;;;15.20;15.00;;;;;35.04;17.97;97299.97;7670506;22;96892;-63
2021/10/21 07:35:05;;;;;;;;;15.60;15.40;;;;;34.87;18.01;97303.03;7696771;22;98083;-63
2021/10/21 07:38:08;;;;;;;;;13.60;13.00;;;;;35.44;17.44;97312.22;7698113;22;97478;-63
2021/10/21 07:41:11;;;;;;;;;16.25;14.00;;;;;35.90;17.27;97322.72;7672151;22;96750;-63
2021/10/21 07:44:16;;;;;;;;;14.40;14.00;;;;;36.00;16.53;97329.34;7697517;22;97562;-63
2021/10/21 07:47:20;;;;;;;;;16.00;15.00;;;;;36.03;16.64;97348.13;7698039;22;97426;-62
2021/10/21 07:50:23;;;;;;;;;15.00;14.00;;;;;36.55;16.66;97347.63;7670694;22;96634;-62
2021/10/21 07:53:28;;;;;;;;;14.00;14.00;;;;;36.62;16.67;97341.88;7698094;22;97377;-62
2021/10/21 07:56:31;;;;;;;;;16.00;14.25;;;;;36.71;16.38;97342.88;7697973;22;96387;-61
2021/10/21 07:59:36;;;;;;;;;15.20;15.00;;;;;36.16;16.72;97334.31;7697683;22;96510;-63
2021/10/21 08:02:42;;;;;;;;;15.00;13.00;;;;;37.13;16.15;97332.81;7697866;22;97508;-62
2021/10/21 08:05:45;;;;;;;;;14.00;12.60;;;;;37.93;15.36;97344.59;7697636;22;96496;-63
2021/10/21 08:08:49;;;;;;;;;15.00;15.00;;;;;38.24;15.33;97320.50;7697672;22;96899;-64
2021/10/21 08:11:53;;;;;;;;;14.40;13.00;;;;;38.37;15.36;97304.44;7697428;22;98024;-63
2021/10/21 08:14:58;;;;;;;;;14.00;13.00;;;;;38.66;15.15;97304.44;7697689;22;96467;-63
2021/10/21 08:18:03;;;;;;;;;13.00;13.00;;;;;38.88;14.67;97302.63;7668986;22;97623;-63
2021/10/21 08:21:07;;;;;;;;;14.40;14.00;;;;;38.96;14.65;97272.19;7696258;22;98168;-64
2021/10/21 08:24:11;;;;;;;;;13.67;13.00;;;;;38.63;14.72;97273.56;7670194;22;97643;-63
2021/10/21 08:27:14;;;;;;;;;15.00;14.00;;;;;38.14;15.19;97273.72;7670191;22;97085;-64
2021/10/21 08:30:23;;;;;;;;;16.00;15.00;;;;;37.93;15.39;97286.28;7697705;22;97913;-64
2021/10/21 08:33:26;;;;;;;;;15.40;15.40;;;;;38.10;15.58;97292.72;7644868;22;97668;-63
2021/10/21 08:36:30;;;;;;;;;13.00;12.40;;;;;38.34;15.33;97296.09;7670274;22;96956;-63
2021/10/21 08:39:36;;;;;;;;;14.00;13.00;;;;;38.31;15.23;97294.97;7669604;22;98501;-64
2021/10/21 08:42:40;;;;;;;;;12.60;12.60;;;;;38.71;15.38;97315.16;7696787;22;96394;-63
2021/10/21 08:45:47;;;;;;;;;13.00;12.40;;;;;38.92;15.42;97334.31;7696629;22;96494;-63
2021/10/21 08:48:52;;;;;;;;;17.00;14.00;;;;;38.79;14.70;97343.94;7696477;22;97619;-64
2021/10/21 08:51:56;;;;;;;;;15.40;15.00;;;;;39.15;15.10;97332.41;7696264;22;97420;-64
2021/10/21 08:54:59;;;;;;;;;15.00;13.75;;;;;39.01;14.64;97342.09;7667345;22;96715;-65
2021/10/21 08:58:03;;;;;;;;;13.00;12.00;;;;;39.45;14.63;97334.72;7695731;22;97347;-63
2021/10/21 09:01:09;;;;;;;;;13.40;12.00;;;;;39.87;14.21;97351.56;7694941;22;96634;-65
2021/10/21 09:04:26;;;;;;;;;13.00;12.80;;;;;40.24;14.13;97354.31;7695293;22;97451;-63
2021/10/21 09:10:53;;;;;;;;;13.00;12.00;;;;;40.59;13.94;97368.44;7696583;22;96879;-64
2021/10/21 09:14:11;;;;;;;;;11.00;10.00;;;;;40.99;13.69;97377.88;7696818;22;96604;-65
2021/10/21 09:17:18;;;;;;;;;12.00;11.00;;;;;41.08;13.98;97383.63;7696564;22;97898;-63
2021/10/21 09:20:37;;;;;;;;;16.40;14.00;;;;;41.34;13.82;97403.25;7696931;22;96902;-64
2021/10/21 09:23:42;;;;;;;;;13.00;13.00;;;;;41.48;13.79;97416.88;7696802;22;96435;-63
2021/10/21 09:26:59;;;;;;;;;14.00;13.00;;;;;41.48;13.47;97419.69;7643589;22;98851;-63
2021/10/21 09:30:06;;;;;;;;;15.00;14.00;;;;;41.03;13.85;97418.13;7698381;22;96381;-63
2021/10/21 09:33:13;;;;;;;;;13.60;13.60;;;;;40.42;14.47;97417.88;7698904;22;96413;-63
2021/10/21 09:36:21;;;;;;;;;14.50;14.00;;;;;39.87;15.21;97414.41;7671735;22;98332;-65
2021/10/21 09:39:25;;;;;;;;;14.00;13.00;;;;;39.70;15.00;97396.00;7697293;22;96791;-63
2021/10/21 09:42:29;;;;;;;;;14.00;12.50;;;;;39.54;15.56;97393.28;7698493;22;97361;-63
2021/10/21 09:45:35;;;;;;;;;16.40;14.00;;;;;39.99;14.66;97391.03;7698508;22;97434;-63
2021/10/21 09:48:39;;;;;;;;;13.00;13.00;;;;;39.84;14.98;97382.25;7698663;22;96831;-63
2021/10/21 09:51:44;;;;;;;;;11.60;11.00;;;;;39.92;14.67;97385.63;7698427;22;97163;-63
2021/10/21 09:54:47;;;;;;;;;14.80;12.00;;;;;39.91;14.34;97384.06;7698224;22;97046;-63
2021/10/21 09:58:02;;;;;;;;;10.40;9.40;;;;;39.05;15.31;97395.56;7698825;22;97322;-63
2021/10/21 10:01:07;;;;;;;;;12.00;10.60;;;;;37.45;15.83;97393.13;7698098;22;97335;-64
2021/10/21 10:04:14;;;;;;;;;11.40;11.00;;;;;35.75;17.65;97385.84;7670321;22;98743;-64
2021/10/21 10:07:19;;;;;;;;;11.80;11.00;;;;;34.76;18.57;97389.94;7698222;22;97462;-63
2021/10/21 10:10:22;;;;;;;;;11.00;10.00;;;;;33.99;19.23;97397.06;7644603;22;98611;-64
2021/10/21 10:13:27;;;;;;;;;10.00;10.00;;;;;33.06;20.24;97396.78;7670176;22;97164;-64
2021/10/21 10:16:33;;;;;;;;;10.80;10.80;;;;;32.34;21.44;97408.53;7696754;22;97653;-64
2021/10/21 10:19:44;;;;;;;;;11.00;10.60;;;;;31.42;22.11;97415.59;7698547;22;97363;-62
2021/10/21 10:22:48;;;;;;;;;12.00;12.00;;;;;30.80;22.81;97416.91;7697920;22;97084;-62
2021/10/21 10:25:53;;;;;;;;;13.80;12.00;;;;;30.34;24.08;97413.84;7697666;22;97345;-63
2021/10/21 10:28:56;;;;;;;;;13.50;12.00;;;;;29.85;25.14;97417.81;7670998;22;97090;-62
2021/10/21 10:32:01;;;;;;;;;12.20;11.00;;;;;29.38;25.51;97426.84;7644635;22;98335;-62
2021/10/21 10:35:07;;;;;;;;;11.50;11.00;;;;;28.86;25.58;97422.25;7697503;22;97457;-64
2021/10/21 10:38:36;;;;;;;;;12.20;11.20;;;;;28.28;26.92;97424.56;7698043;22;97310;-64
2021/10/21 10:41:55;;;;;;;;;12.00;12.00;;;;;27.88;27.19;97420.34;7697254;22;96426;-62
2021/10/21 10:45:03;;;;;;;;;11.80;11.20;;;;;27.63;27.87;97413.59;7669580;22;96646;-63
2021/10/21 10:48:08;;;;;;;;;13.00;11.40;;;;;27.20;28.07;97425.81;7698547;22;97030;-62
2021/10/21 10:51:12;;;;;;;;;11.00;10.60;;;;;26.74;29.03;97444.97;7670048;22;97137;-62
2021/10/21 10:55:01;;;;;;;;;12.00;11.40;;;;;26.55;29.32;97439.41;7695575;22;97394;-62
2021/10/21 10:58:04;;;;;;;;;13.00;12.00;;;;;26.31;29.62;97425.84;7670081;22;99605;-63
2021/10/21 11:01:08;;;;;;;;;10.00;10.00;;;;;25.74;30.52;97448.47;7698106;22;97461;-62
2021/10/21 11:04:11;;;;;;;;;11.60;11.00;;;;;25.56;30.56;97436.97;7697454;22;97579;-62
2021/10/21 11:07:17;;;;;;;;;8.60;8.00;;;;;25.31;31.30;97449.28;7697385;22;97175;-63
2021/10/21 11:10:39;;;;;;;;;9.60;9.00;;;;;25.03;31.63;97461.09;7670369;22;97656;-61
2021/10/21 11:13:43;;;;;;;;;11.00;11.00;;;;;24.81;32.05;97477.34;7697065;22;96405;-62
2021/10/21 11:16:53;;;;;;;;;10.00;9.00;;;;;24.66;32.49;97491.84;7697262;22;96506;-62
2021/10/21 11:19:56;;;;;;;;;9.00;9.00;;;;;24.47;32.85;97503.47;7696878;22;96529;-62
2021/10/21 11:23:02;;;;;;;;;9.00;9.00;;;;;24.38;32.74;97500.84;7696816;22;96426;-62
2021/10/21 11:26:06;;;;;;;;;10.20;9.80;;;;;24.19;33.36;97497.84;7670178;22;97311;-62
2021/10/21 11:29:09;;;;;;;;;11.00;10.00;;;;;23.94;33.54;97486.00;7671368;22;97360;-62
2021/10/21 11:32:13;;;;;;;;;10.20;10.00;;;;;23.82;34.15;97480.47;7698876;22;96348;-62
2021/10/21 11:35:18;;;;;;;;;12.00;11.50;;;;;23.66;34.38;97461.06;7698413;22;97395;-63
2021/10/21 11:38:23;;;;;;;;;11.00;11.00;;;;;23.51;34.40;97474.66;7699780;22;97381;-62
2021/10/21 11:41:27;;;;;;;;;11.00;10.00;;;;;23.32;35.14;97453.94;7698242;22;97353;-62
2021/10/21 11:44:30;;;;;;;;;11.00;11.00;;;;;23.21;35.31;97438.25;7669945;22;97030;-61
2021/10/21 11:47:34;;;;;;;;;10.50;9.50;;;;;23.18;35.25;97428.72;7697850;22;97378;-61
2021/10/21 11:50:41;;;;;;;;;12.00;12.00;;;;;23.08;35.42;97423.63;7696191;22;96530;-62
2021/10/21 11:53:48;;;;;;;;;11.00;10.00;;;;;22.91;35.05;97420.25;7669110;22;96612;-62
2021/10/21 11:56:54;;;;;;;;;11.00;10.00;;;;;22.66;35.42;97424.78;7696464;22;97511;-61
2021/10/21 11:59:57;;;;;;;;;11.40;11.00;;;;;22.47;36.34;97414.28;7696456;22;96506;-63
2021/10/21 12:03:02;;;;;;;;;9.00;8.00;;;;;22.25;36.53;97407.16;7696684;22;97315;-62
2021/10/21 12:06:07;;;;;;;;;10.40;10.00;;;;;22.10;36.66;97413.22;7696585;22;97048;-63
2021/10/21 12:09:12;;;;;;;;;9.00;9.00;;;;;21.96;37.21;97405.22;7696809;22;96819;-62
2021/10/21 12:12:15;;;;;;;;;9.20;8.20;;;;;21.95;37.38;97408.31;7696591;22;97640;-62
2021/10/21 12:15:19;;;;;;;;;9.00;9.00;;;;;21.98;36.78;97397.50;7669723;22;97076;-62
2021/10/21 12:18:25;;;;;;;;;8.00;7.00;;;;;21.76;37.55;97396.91;7697718;22;96917;-63
2021/10/21 12:21:36;;;;;;;;;8.20;7.00;;;;;21.65;37.34;97404.69;7697584;22;97103;-63
2021/10/21 12:24:43;;;;;;;;;9.00;9.00;;;;;21.69;37.58;97405.69;7697222;22;96358;-62
2021/10/21 12:27:46;;;;;;;;;10.00;8.40;;;;;21.94;36.80;97401.22;7697346;22;96473;-63
2021/10/21 12:30:49;;;;;;;;;9.00;9.00;;;;;21.98;36.19;97399.44;7697101;22;96932;-63
2021/10/21 12:33:56;;;;;;;;;8.75;8.00;;;;;22.10;35.80;97409.66;7697414;22;96530;-61
2021/10/21 12:37:00;;;;;;;;;7.80;7.00;;;;;21.98;35.91;97393.94;7697706;22;96916;-63
2021/10/21 12:40:13;;;;;;;;;6.00;6.00;;;;;22.10;34.93;97404.19;7697396;22;98097;-63
2021/10/21 12:43:17;;;;;;;;;7.00;6.60;;;;;22.07;34.46;97402.91;7695711;22;97594;-63
2021/10/21 12:46:27;;;;;;;;;8.00;7.50;;;;;22.08;34.01;97412.75;7698170;22;97598;-63
2021/10/21 12:49:31;;;;;;;;;6.00;6.00;;;;;22.09;33.90;97428.06;7698228;22;96371;-61
2021/10/21 12:52:35;;;;;;;;;7.00;7.00;;;;;21.90;34.17;97420.25;7656667;22;97733;-63
2021/10/21 12:55:40;;;;;;;;;6.50;5.50;;;;;22.00;34.53;97414.41;7660403;22;96586;-62
2021/10/21 12:58:45;;;;;;;;;7.00;6.00;;;;;21.80;34.07;97419.81;7658355;22;96393;-61
2021/10/21 13:01:58;;;;;;;;;7.00;6.40;;;;;21.85;34.23;97422.34;7659194;22;96980;-62
2021/10/21 13:05:04;;;;;;;;;7.00;7.00;;;;;21.68;34.60;97427.94;7659194;22;96501;-63
2021/10/21 13:08:08;;;;;;;;;7.00;7.00;;;;;21.77;34.42;97421.28;7659143;22;97395;-62
2021/10/21 13:11:15;;;;;;;;;8.00;8.00;;;;;21.81;34.70;97429.66;7658490;22;97433;-62
2021/10/21 13:14:19;;;;;;;;;7.25;6.00;;;;;22.06;34.24;97431.50;7658101;22;96843;-61
2021/10/21 13:17:22;;;;;;;;;6.60;6.00;;;;;22.12;34.46;97432.91;7658516;22;97364;-62
2021/10/21 13:20:25;;;;;;;;;7.00;7.00;;;;;22.08;34.43;97470.41;7656378;22;98429;-62
2021/10/21 13:23:30;;;;;;;;;8.00;6.60;;;;;21.97;34.95;97472.72;7656459;22;97180;-63
2021/10/21 13:26:35;;;;;;;;;8.00;6.00;;;;;21.88;35.37;97465.63;7658521;22;96996;-61
2021/10/21 13:29:39;;;;;;;;;6.00;6.00;;;;;21.77;35.47;97456.94;7657810;22;97520;-63
2021/10/21 13:32:42;;;;;;;;;5.20;5.00;;;;;21.88;35.22;97451.91;7658268;22;96902;-64
2021/10/21 13:35:46;;;;;;;;;5.00;4.00;;;;;21.88;34.93;97465.63;7658779;22;96809;-63
2021/10/21 13:38:51;;;;;;;;;5.00;5.00;;;;;21.86;35.08;97454.97;7657005;22;97341;-64
2021/10/21 13:41:55;;;;;;;;;7.00;6.00;;;;;21.71;34.61;97471.97;7658002;22;96873;-64
2021/10/21 13:44:59;;;;;;;;;6.00;5.80;;;;;21.88;34.77;97455.44;7659263;22;97044;-63
2021/10/21 13:48:04;;;;;;;;;5.80;5.80;;;;;21.80;34.84;97458.22;7658471;22;97569;-62
2021/10/21 13:51:07;;;;;;;;;4.80;4.00;;;;;21.78;34.55;97482.44;7665319;22;99612;-65
2021/10/21 13:54:10;;;;;;;;;4.00;4.00;;;;;21.87;34.90;97461.25;7696605;22;96780;-63
2021/10/21 13:57:16;;;;;;;;;6.00;5.00;;;;;21.63;35.32;97477.47;7669282;22;97406;-64
2021/10/21 14:00:20;;;;;;;;;7.00;5.40;;;;;21.66;35.37;97485.03;7669034;22;97762;-63
2021/10/21 14:03:24;;;;;;;;;5.75;5.00;;;;;21.58;35.63;97486.69;7696546;22;97415;-64
2021/10/21 14:06:29;;;;;;;;;7.00;6.00;;;;;21.59;35.23;97485.56;7668123;22;98337;-62
2021/10/21 14:09:33;;;;;;;;;5.50;5.00;;;;;21.68;35.45;97496.50;7667269;22;97005;-63
2021/10/21 14:12:39;;;;;;;;;7.00;5.40;;;;;21.54;35.67;97502.19;7695143;22;97116;-62
2021/10/21 14:15:42;;;;;;;;;5.25;5.25;;;;;21.58;35.28;97494.91;7667653;22;97891;-62
2021/10/21 14:18:46;;;;;;;;;5.00;5.00;;;;;21.65;35.31;97486.19;7696901;22;97858;-64